Time;durP1;ratioP1;P1;durP2;ratioP2;P2;SDS_P1;SDS_P2;PMS_P1;PMS_P2;Temp;Humidity;BMP_temperature;BMP_pressure;BME280_temperature;BME280_humidity;BME280_pressure;Samples;Min_cycle;Max_cycle;Signal;HPM_P1;HPM_P2
2023/10/19 00:00:56;;;;;;;28.15;16.00;;;8.80;99.90;;;;;;5047387;28;20045;-77
2023/10/19 00:03:23;;;;;;;20.83;14.68;;;8.80;99.90;;;;;;5083159;28;20127;-77
2023/10/19 00:05:49;;;;;;;27.73;14.85;;;8.90;99.90;;;;;;5037554;28;20053;-77
2023/10/19 00:08:22;;;;;;;26.05;15.20;;;8.80;99.90;;;;;;5038756;28;20163;-78
2023/10/19 00:11:02;;;;;;;24.00;15.18;;;8.80;99.90;;;;;;5051715;28;20603;-77
2023/10/19 00:13:28;;;;;;;26.15;17.23;;;8.90;99.90;;;;;;5020514;28;20095;-78
2023/10/19 00:15:57;;;;;;;22.45;14.05;;;8.90;99.90;;;;;;5034149;28;20155;-77
2023/10/19 00:18:24;;;;;;;27.25;16.73;;;8.80;99.90;;;;;;5056978;28;20535;-77
2023/10/19 00:20:59;;;;;;;28.60;16.92;;;8.80;99.90;;;;;;5038104;28;20136;-77
2023/10/19 00:23:28;;;;;;;24.38;16.83;;;8.80;99.90;;;;;;5054740;28;20492;-77
2023/10/19 00:26:14;;;;;;;26.52;17.40;;;8.80;99.90;;;;;;5054217;28;20048;-77
2023/10/19 00:28:40;;;;;;;25.50;16.40;;;8.80;99.90;;;;;;5063872;28;20047;-77
2023/10/19 00:31:08;;;;;;;28.63;17.42;;;8.80;99.90;;;;;;5039709;28;20051;-77
2023/10/19 00:33:38;;;;;;;21.83;15.23;;;8.80;99.90;;;;;;5040058;28;20067;-77
2023/10/19 00:36:14;;;;;;;26.52;17.98;;;8.80;99.90;;;;;;5072131;28;20127;-77
2023/10/19 00:38:57;;;;;;;24.15;16.08;;;8.80;99.90;;;;;;5045850;28;20056;-77
2023/10/19 00:41:29;;;;;;;23.02;15.65;;;8.80;99.90;;;;;;5070252;28;20056;-76
2023/10/19 00:44:07;;;;;;;26.48;16.77;;;8.80;99.90;;;;;;5066243;28;20134;-77
2023/10/19 00:46:37;;;;;;;24.83;16.80;;;8.80;99.90;;;;;;5058622;28;20176;-77
2023/10/19 00:49:09;;;;;;;25.93;16.83;;;8.80;99.90;;;;;;5086195;28;20514;-77
2023/10/19 00:54:10;;;;;;;22.73;15.77;;;8.80;99.90;;;;;;5071541;28;20056;-77
2023/10/19 00:56:37;;;;;;;26.00;17.17;;;8.80;99.90;;;;;;5057198;28;20036;-76
2023/10/19 00:59:20;;;;;;;23.77;16.75;;;8.80;99.90;;;;;;5064096;28;20048;-76
2023/10/19 01:01:54;;;;;;;25.75;17.95;;;8.80;99.90;;;;;;5064300;28;20048;-77
2023/10/19 01:04:23;;;;;;;26.60;18.63;;;8.80;99.90;;;;;;5039368;28;20463;-77
2023/10/19 01:07:07;;;;;;;25.05;17.00;;;8.80;99.90;;;;;;5045402;28;20373;-77
2023/10/19 01:09:36;;;;;;;26.10;17.10;;;8.80;99.90;;;;;;5057651;28;20056;-77
2023/10/19 01:15:51;;;;;;;24.90;17.80;;;8.80;99.90;;;;;;5028592;28;20532;-76
2023/10/19 01:17:58;;;;;;;;;;;8.80;99.90;;;;;;5045878;28;20056;-77
2023/10/19 01:28:25;;;;;;;30.98;19.58;;;8.80;99.90;;;;;;5075422;28;20141;-77
2023/10/19 01:30:51;;;;;;;26.23;17.92;;;8.70;99.90;;;;;;5082439;28;20047;-77
2023/10/19 01:33:21;;;;;;;26.42;18.73;;;8.70;99.90;;;;;;5078518;28;20768;-77
2023/10/19 01:38:31;;;;;;;31.13;19.42;;;8.70;99.90;;;;;;5074783;28;20056;-77
2023/10/19 01:41:00;;;;;;;26.15;18.27;;;8.70;99.90;;;;;;5082066;28;20127;-77
2023/10/19 01:43:31;;;;;;;28.48;18.35;;;8.70;99.90;;;;;;5068118;28;20048;-77
2023/10/19 01:45:58;;;;;;;28.35;18.65;;;8.70;99.90;;;;;;5066260;28;20099;-77
2023/10/19 01:48:33;;;;;;;26.85;17.88;;;8.70;99.90;;;;;;5073983;28;20055;-77
2023/10/19 01:51:10;;;;;;;27.92;19.05;;;8.70;99.90;;;;;;5074979;28;20080;-77
2023/10/19 01:53:39;;;;;;;27.85;18.88;;;8.70;99.90;;;;;;5075549;28;20036;-77
2023/10/19 01:56:09;;;;;;;26.23;19.02;;;8.70;99.90;;;;;;5075110;28;20084;-78
2023/10/19 01:58:39;;;;;;;27.67;18.67;;;8.80;99.90;;;;;;5091101;28;20082;-77
2023/10/19 02:03:41;;;;;;;28.70;19.10;;;8.80;99.90;;;;;;5074194;28;20139;-77
2023/10/19 02:06:17;;;;;;;28.20;19.30;;;8.70;99.90;;;;;;5071451;28;20053;-77
2023/10/19 02:09:00;;;;;;;29.90;19.42;;;8.70;99.90;;;;;;5077681;28;20492;-77
2023/10/19 02:11:27;;;;;;;26.05;19.30;;;8.70;99.90;;;;;;5095334;28;20131;-77
2023/10/19 02:14:00;;;;;;;26.55;17.50;;;8.70;99.90;;;;;;5074168;28;20049;-78
2023/10/19 02:16:29;;;;;;;27.90;19.70;;;8.70;99.90;;;;;;5075122;28;20106;-77
2023/10/19 02:18:55;;;;;;;26.55;18.75;;;8.70;99.90;;;;;;5071898;28;20044;-78
2023/10/19 02:21:30;;;;;;;27.75;18.15;;;8.70;99.90;;;;;;5074844;28;20102;-77
2023/10/19 02:23:57;;;;;;;24.38;17.38;;;8.70;99.90;;;;;;5068814;28;20047;-78
2023/10/19 02:26:27;;;;;;;26.20;18.13;;;8.70;99.90;;;;;;5053258;28;20523;-77
2023/10/19 02:28:53;;;;;;;28.05;18.63;;;8.70;99.90;;;;;;5056858;28;20052;-77
2023/10/19 02:31:21;;;;;;;23.67;17.77;;;8.70;99.90;;;;;;5074067;28;20376;-77
2023/10/19 02:34:00;;;;;;;27.08;18.15;;;8.70;99.90;;;;;;5074833;28;20051;-77
2023/10/19 02:36:30;;;;;;;24.45;17.90;;;8.80;99.90;;;;;;5056726;28;20036;-77
2023/10/19 02:39:07;;;;;;;26.60;18.08;;;8.80;99.90;;;;;;5075055;28;20052;-77
2023/10/19 02:41:54;;;;;;;25.08;18.63;;;8.80;99.90;;;;;;5093915;28;20084;-77
2023/10/19 02:44:25;;;;;;;26.65;18.58;;;8.80;99.90;;;;;;5080150;28;20062;-77
2023/10/19 02:47:08;;;;;;;23.75;17.13;;;8.90;99.90;;;;;;5074010;28;20076;-77
2023/10/19 02:49:38;;;;;;;24.00;17.15;;;8.70;99.90;;;;;;5071288;28;20055;-77
2023/10/19 02:52:05;;;;;;;26.35;16.73;;;8.80;99.90;;;;;;5075301;28;20040;-77
2023/10/19 02:54:34;;;;;;;23.33;17.23;;;8.80;99.90;;;;;;5055872;28;20052;-77
2023/10/19 02:57:00;;;;;;;21.27;14.90;;;8.70;99.90;;;;;;5044493;28;20048;-77
2023/10/19 02:59:31;;;;;;;19.92;14.55;;;8.80;99.90;;;;;;5065308;28;20501;-77
2023/10/19 03:04:41;;;;;;;19.63;14.77;;;8.80;99.90;;;;;;5062793;28;20123;-77
2023/10/19 03:07:07;;;;;;;20.60;14.50;;;8.80;99.90;;;;;;5057377;28;20437;-77
2023/10/19 03:09:36;;;;;;;22.48;15.02;;;8.80;99.90;;;;;;5057049;28;20076;-77
2023/10/19 03:12:04;;;;;;;21.00;14.90;;;8.80;99.90;;;;;;5064370;28;20142;-77
2023/10/19 03:14:32;;;;;;;20.17;15.25;;;8.80;99.90;;;;;;5045402;28;20054;-77
2023/10/19 03:17:03;;;;;;;21.52;15.68;;;8.80;99.90;;;;;;5055784;28;20480;-77
2023/10/19 03:19:29;;;;;;;20.98;15.50;;;8.80;99.90;;;;;;5059004;28;20102;-77
2023/10/19 03:22:00;;;;;;;21.10;15.05;;;8.80;99.90;;;;;;5082205;28;20040;-76
2023/10/19 03:24:42;;;;;;;20.02;15.25;;;8.80;99.90;;;;;;5077509;28;20049;-77
2023/10/19 03:27:18;;;;;;;21.77;15.57;;;8.80;99.90;;;;;;5063431;28;20053;-77
2023/10/19 03:29:48;;;;;;;22.77;15.70;;;8.80;99.90;;;;;;5074164;28;20041;-77
2023/10/19 03:32:21;;;;;;;19.70;15.07;;;8.90;99.90;;;;;;5075344;28;20084;-77
2023/10/19 03:34:48;;;;;;;21.25;14.50;;;8.80;99.90;;;;;;5073828;28;20466;-77
2023/10/19 03:37:14;;;;;;;20.65;15.48;;;8.80;99.90;;;;;;5073199;28;20428;-77
2023/10/19 03:39:41;;;;;;;19.48;13.45;;;8.80;99.90;;;;;;5080145;28;20123;-77
2023/10/19 03:42:13;;;;;;;19.70;13.95;;;8.80;99.90;;;;;;5080706;28;20060;-77
2023/10/19 03:47:18;;;;;;;18.77;14.55;;;8.80;99.90;;;;;;5067090;28;20052;-76
2023/10/19 03:49:46;;;;;;;18.77;14.10;;;8.80;99.90;;;;;;5049336;28;20123;-77
2023/10/19 03:54:41;;;;;;;17.95;12.85;;;8.80;99.90;;;;;;5072884;28;20082;-77
2023/10/19 03:57:29;;;;;;;18.92;14.20;;;8.80;99.90;;;;;;5069460;28;20143;-76
2023/10/19 03:59:58;;;;;;;17.70;12.63;;;8.80;99.90;;;;;;5068376;28;20040;-76
2023/10/19 04:02:25;;;;;;;17.95;13.35;;;8.80;99.90;;;;;;5070121;28;20040;-77
2023/10/19 04:04:52;;;;;;;17.17;12.75;;;8.80;99.90;;;;;;5050635;28;20040;-76
2023/10/19 04:07:21;;;;;;;16.48;11.65;;;8.80;99.90;;;;;;5050687;28;20128;-77
2023/10/19 04:12:35;;;;;;;17.00;12.60;;;9.00;99.90;;;;;;5052879;28;20500;-77
2023/10/19 04:15:21;;;;;;;16.33;12.20;;;8.80;99.90;;;;;;5068858;28;20045;-77
2023/10/19 04:17:52;;;;;;;16.63;12.05;;;8.80;99.90;;;;;;5048699;28;20052;-77
2023/10/19 04:22:45;;;;;;;20.58;11.98;;;8.80;99.90;;;;;;5067137;28;20427;-77
2023/10/19 04:25:20;;;;;;;15.48;11.35;;;8.90;99.90;;;;;;5069211;28;20044;-77
2023/10/19 04:27:48;;;;;;;16.90;12.13;;;8.90;99.90;;;;;;5051399;28;20098;-77
2023/10/19 04:30:21;;;;;;;16.73;12.10;;;8.90;99.90;;;;;;5037281;28;20044;-78
2023/10/19 04:32:49;;;;;;;15.10;11.32;;;8.90;99.90;;;;;;5058358;28;20059;-78
2023/10/19 04:35:24;;;;;;;16.30;11.82;;;8.90;99.90;;;;;;5069750;28;20127;-77
2023/10/19 04:37:51;;;;;;;14.88;10.95;;;9.00;99.90;;;;;;5052519;28;20453;-77
2023/10/19 04:40:22;;;;;;;16.13;11.25;;;8.90;99.90;;;;;;5036286;28;20056;-77
2023/10/19 04:42:50;;;;;;;15.20;11.45;;;8.90;99.90;;;;;;5051383;28;20123;-78
2023/10/19 04:45:16;;;;;;;15.80;11.60;;;8.90;99.90;;;;;;5054186;28;20057;-77
2023/10/19 04:47:42;;;;;;;15.05;10.65;;;8.90;99.90;;;;;;5053731;28;20045;-77
2023/10/19 04:50:11;;;;;;;15.07;10.73;;;9.00;99.90;;;;;;5052215;28;20053;-77
2023/10/19 04:52:37;;;;;;;14.98;11.05;;;8.90;99.90;;;;;;5053068;28;20072;-78
2023/10/19 04:55:05;;;;;;;14.27;10.95;;;8.80;99.90;;;;;;5035933;28;20372;-78
2023/10/19 04:57:34;;;;;;;15.27;10.38;;;8.90;99.90;;;;;;5056903;28;20049;-78
2023/10/19 05:00:00;;;;;;;13.35;9.40;;;8.90;99.90;;;;;;5050897;28;20045;-77
2023/10/19 05:02:29;;;;;;;14.27;10.23;;;8.90;99.90;;;;;;5059935;28;20040;-77
2023/10/19 05:04:55;;;;;;;11.93;8.73;;;8.90;99.90;;;;;;5051973;28;20055;-77
2023/10/19 05:07:20;;;;;;;11.75;8.50;;;8.90;99.90;;;;;;5049771;28;20389;-77
2023/10/19 05:09:47;;;;;;;11.00;8.07;;;8.90;99.90;;;;;;5052765;28;20064;-77
2023/10/19 05:12:15;;;;;;;12.43;8.65;;;8.90;99.90;;;;;;5054759;28;20044;-77
2023/10/19 05:14:42;;;;;;;10.98;8.30;;;8.90;99.90;;;;;;5068886;28;20048;-77
2023/10/19 05:17:12;;;;;;;12.55;8.93;;;8.90;99.90;;;;;;5047354;28;20140;-77
2023/10/19 05:19:39;;;;;;;10.63;8.13;;;8.90;99.90;;;;;;5070299;28;20395;-77
2023/10/19 05:22:07;;;;;;;11.38;7.78;;;9.10;99.90;;;;;;5041277;28;20041;-78
2023/10/19 05:24:33;;;;;;;11.35;8.00;;;8.90;99.90;;;;;;5022111;28;20045;-77
2023/10/19 05:26:59;;;;;;;11.07;7.85;;;8.90;99.90;;;;;;5058459;28;20044;-77
2023/10/19 05:29:24;;;;;;;10.32;7.97;;;9.00;99.90;;;;;;5046293;28;20087;-77
2023/10/19 05:31:54;;;;;;;10.65;8.05;;;8.90;99.90;;;;;;5044195;28;20048;-77
2023/10/19 05:34:24;;;;;;;11.35;7.65;;;8.90;99.90;;;;;;5058953;28;20053;-76
2023/10/19 05:36:51;;;;;;;10.05;7.30;;;8.90;99.90;;;;;;5050723;28;20040;-77
2023/10/19 05:39:17;;;;;;;9.38;6.80;;;9.00;99.90;;;;;;5048537;28;20059;-77
2023/10/19 05:41:43;;;;;;;10.23;7.20;;;8.90;99.90;;;;;;5040702;28;20372;-78
2023/10/19 05:44:09;;;;;;;10.52;6.65;;;8.90;99.90;;;;;;5045937;28;20099;-77
2023/10/19 05:46:35;;;;;;;10.50;7.03;;;9.00;99.90;;;;;;5048492;28;20052;-77
2023/10/19 05:49:03;;;;;;;10.10;6.95;;;8.90;99.90;;;;;;5044564;28;20049;-77
2023/10/19 05:51:30;;;;;;;9.55;6.78;;;8.90;99.90;;;;;;5042931;28;20128;-78
2023/10/19 05:54:01;;;;;;;8.68;6.40;;;8.90;99.90;;;;;;5050744;28;20082;-77
2023/10/19 05:56:28;;;;;;;9.50;6.75;;;9.00;99.90;;;;;;5062427;28;20045;-77
2023/10/19 05:58:53;;;;;;;9.18;6.80;;;8.90;99.90;;;;;;5065530;28;20075;-77
2023/10/19 06:01:20;;;;;;;8.15;6.18;;;8.90;99.90;;;;;;5054555;28;20049;-77
2023/10/19 06:03:45;;;;;;;9.82;6.53;;;8.90;99.90;;;;;;5033642;28;20044;-77
2023/10/19 06:06:11;;;;;;;9.27;6.65;;;8.90;99.90;;;;;;5068856;28;20044;-78
2023/10/19 06:08:37;;;;;;;9.30;6.70;;;8.90;99.90;;;;;;5046368;28;20109;-79
2023/10/19 06:11:06;;;;;;;9.30;6.72;;;8.90;99.90;;;;;;5043297;28;20052;-78
2023/10/19 06:13:32;;;;;;;8.20;6.47;;;8.90;99.90;;;;;;5054816;28;20376;-77
2023/10/19 06:15:57;;;;;;;8.15;5.90;;;8.90;99.90;;;;;;5051033;28;20049;-79
2023/10/19 06:18:23;;;;;;;8.68;6.35;;;9.00;99.90;;;;;;5049455;28;20405;-79
2023/10/19 06:20:51;;;;;;;8.13;5.82;;;8.90;99.90;;;;;;5053951;28;20098;-79
2023/10/19 06:23:17;;;;;;;10.18;7.35;;;8.90;99.90;;;;;;5050166;28;20044;-78
2023/10/19 06:25:44;;;;;;;9.63;6.65;;;8.90;99.90;;;;;;5032568;28;20519;-78
2023/10/19 06:28:11;;;;;;;9.48;6.25;;;8.90;99.90;;;;;;5060358;28;20132;-78
2023/10/19 06:30:37;;;;;;;8.73;6.55;;;8.90;99.90;;;;;;5041407;28;20049;-79
2023/10/19 06:33:03;;;;;;;9.30;6.68;;;8.90;99.90;;;;;;5063542;28;20131;-79
2023/10/19 06:35:33;;;;;;;8.93;6.55;;;8.90;99.90;;;;;;5049420;28;20132;-79
2023/10/19 06:38:03;;;;;;;9.65;6.00;;;8.90;99.90;;;;;;5040650;28;20059;-80
2023/10/19 06:40:30;;;;;;;7.90;5.70;;;8.90;99.90;;;;;;5062501;28;20550;-80
2023/10/19 06:42:57;;;;;;;7.82;5.78;;;9.00;99.90;;;;;;5064641;28;20067;-81
2023/10/19 06:45:25;;;;;;;8.82;6.25;;;9.00;99.90;;;;;;5039072;28;20029;-81
2023/10/19 06:47:51;;;;;;;7.63;5.22;;;9.00;99.90;;;;;;5056773;28;20091;-80
2023/10/19 06:50:22;;;;;;;7.40;4.97;;;9.00;99.90;;;;;;5056580;28;20048;-79
2023/10/19 06:52:48;;;;;;;6.70;4.88;;;9.00;99.90;;;;;;5056025;28;20048;-79
2023/10/19 06:55:22;;;;;;;7.60;4.82;;;9.00;99.90;;;;;;5065935;28;20051;-80
2023/10/19 06:57:53;;;;;;;6.57;4.87;;;9.00;99.90;;;;;;5073082;28;20472;-80
2023/10/19 07:00:21;;;;;;;7.78;5.00;;;9.00;99.90;;;;;;5070138;28;20492;-80
2023/10/19 07:02:51;;;;;;;6.43;4.90;;;9.00;99.90;;;;;;5042078;28;20040;-80
2023/10/19 07:05:21;;;;;;;6.85;4.65;;;9.00;99.90;;;;;;5073364;28;20519;-80
2023/10/19 07:07:46;;;;;;;6.03;4.20;;;9.00;99.90;;;;;;5069421;28;20048;-80
2023/10/19 07:10:13;;;;;;;5.97;4.13;;;9.00;99.90;;;;;;5057509;28;20135;-79
2023/10/19 07:12:41;;;;;;;5.97;4.38;;;9.00;99.90;;;;;;5053834;28;20032;-79
2023/10/19 07:15:09;;;;;;;5.90;4.18;;;9.00;99.90;;;;;;5055587;28;20110;-78
2023/10/19 07:17:37;;;;;;;6.68;4.47;;;9.10;99.90;;;;;;5054277;28;20041;-78
2023/10/19 07:20:09;;;;;;;6.20;4.13;;;9.10;99.90;;;;;;5054712;28;20063;-78
2023/10/19 07:22:39;;;;;;;6.57;4.55;;;9.10;99.90;;;;;;5054200;28;20041;-79
2023/10/19 07:25:09;;;;;;;5.93;4.10;;;9.10;99.90;;;;;;5055759;28;20048;-78
2023/10/19 07:27:35;;;;;;;6.13;4.20;;;9.10;99.90;;;;;;5057129;28;20098;-80
2023/10/19 07:30:05;;;;;;;7.70;4.30;;;9.00;99.90;;;;;;5055119;28;20123;-80
2023/10/19 07:32:30;;;;;;;5.30;3.90;;;9.10;99.90;;;;;;5054790;28;20457;-80
2023/10/19 07:34:57;;;;;;;5.82;3.95;;;9.30;99.90;;;;;;5056237;28;20195;-80
2023/10/19 07:37:22;;;;;;;5.68;3.95;;;9.10;99.90;;;;;;5059245;28;20052;-79
2023/10/19 07:39:50;;;;;;;5.55;3.95;;;9.10;99.90;;;;;;5055471;28;20055;-80
2023/10/19 07:42:23;;;;;;;5.63;3.63;;;9.20;99.90;;;;;;5055160;28;20076;-80
2023/10/19 07:44:49;;;;;;;5.90;4.07;;;9.20;99.90;;;;;;5055173;28;20035;-79
2023/10/19 07:47:15;;;;;;;6.78;4.00;;;9.20;99.90;;;;;;5037791;28;20048;-79
2023/10/19 07:49:41;;;;;;;6.00;3.70;;;9.20;99.90;;;;;;5038452;28;20073;-80
2023/10/19 07:52:07;;;;;;;5.63;3.85;;;9.20;99.90;;;;;;5058504;28;20449;-79
2023/10/19 07:54:35;;;;;;;5.78;3.83;;;9.20;99.90;;;;;;5058254;28;20047;-80
2023/10/19 07:57:07;;;;;;;6.00;4.07;;;9.20;99.90;;;;;;5055424;28;20146;-81
2023/10/19 07:59:33;;;;;;;5.78;3.97;;;9.10;99.90;;;;;;5055576;28;20102;-82
2023/10/19 08:02:02;;;;;;;5.90;4.28;;;9.20;99.90;;;;;;5073504;28;20044;-82
2023/10/19 08:04:31;;;;;;;6.47;4.45;;;9.20;99.90;;;;;;5073154;28;20118;-82
2023/10/19 08:06:58;;;;;;;5.32;3.95;;;9.30;99.90;;;;;;5055272;28;20464;-82
2023/10/19 08:09:26;;;;;;;9.38;4.70;;;9.20;99.90;;;;;;5073009;28;20095;-81
2023/10/19 08:11:55;;;;;;;7.20;4.95;;;9.20;99.90;;;;;;5069532;28;20045;-81
2023/10/19 08:14:24;;;;;;;6.15;4.30;;;9.20;99.90;;;;;;5064099;28;20090;-81
2023/10/19 08:16:51;;;;;;;6.80;4.15;;;9.20;99.90;;;;;;5043061;28;20052;-81
2023/10/19 08:19:18;;;;;;;8.20;4.50;;;9.20;99.90;;;;;;5072604;28;20082;-80
2023/10/19 08:21:44;;;;;;;6.10;4.40;;;9.20;99.90;;;;;;5072854;28;20044;-81
2023/10/19 08:24:13;;;;;;;7.10;4.15;;;9.30;99.90;;;;;;5072860;28;20101;-80
2023/10/19 08:26:42;;;;;;;6.20;3.92;;;9.20;99.90;;;;;;5072946;28;20040;-81
2023/10/19 08:29:19;;;;;;;6.13;3.58;;;9.20;99.90;;;;;;5073189;28;20080;-79
2023/10/19 08:31:45;;;;;;;6.53;4.50;;;9.20;99.90;;;;;;5071971;28;20538;-81
2023/10/19 08:34:14;;;;;;;4.80;3.55;;;9.20;99.90;;;;;;5071942;28;20080;-79
2023/10/19 08:36:40;;;;;;;6.18;4.10;;;9.20;99.90;;;;;;5078503;28;20097;-79
2023/10/19 08:39:07;;;;;;;5.93;4.10;;;9.30;99.90;;;;;;5071827;28;20523;-79
2023/10/19 08:41:37;;;;;;;5.63;4.10;;;9.30;99.90;;;;;;5072851;28;20411;-78
2023/10/19 08:44:10;;;;;;;5.40;3.85;;;9.30;99.90;;;;;;5072542;28;20045;-79
2023/10/19 08:46:43;;;;;;;5.80;4.25;;;9.30;99.90;;;;;;5073380;28;20357;-78
2023/10/19 08:49:12;;;;;;;6.13;4.40;;;9.30;99.90;;;;;;5071717;28;20055;-79
2023/10/19 08:51:39;;;;;;;6.38;4.55;;;9.40;99.90;;;;;;5072025;28;20037;-79
2023/10/19 08:54:06;;;;;;;8.43;5.05;;;9.30;99.90;;;;;;5078743;28;20049;-78
2023/10/19 08:56:33;;;;;;;6.07;4.43;;;9.30;99.90;;;;;;5072675;28;20044;-77
2023/10/19 08:59:00;;;;;;;5.78;3.83;;;9.40;99.90;;;;;;5052251;28;20041;-78
2023/10/19 09:01:27;;;;;;;6.60;4.90;;;9.40;99.90;;;;;;5064677;28;20044;-77
2023/10/19 09:03:56;;;;;;;7.45;5.30;;;9.40;99.90;;;;;;5062456;28;20557;-78
2023/10/19 09:06:22;;;;;;;6.43;4.55;;;9.50;99.90;;;;;;5071907;28;20049;-77
2023/10/19 09:08:48;;;;;;;6.50;4.68;;;9.50;99.90;;;;;;5068067;28;20057;-78
2023/10/19 09:11:15;;;;;;;7.40;5.18;;;9.40;99.90;;;;;;5047742;28;20075;-76
2023/10/19 09:13:50;;;;;;;7.25;4.97;;;9.50;99.90;;;;;;5032582;28;20052;-77
2023/10/19 09:16:18;;;;;;;6.70;5.00;;;9.50;99.90;;;;;;5070688;28;20044;-77
2023/10/19 09:18:47;;;;;;;6.97;4.97;;;9.50;99.90;;;;;;5055190;28;20545;-77
2023/10/19 09:21:25;;;;;;;7.20;4.93;;;9.50;99.90;;;;;;5050694;28;20088;-77
2023/10/19 09:23:56;;;;;;;7.38;5.53;;;9.50;99.90;;;;;;5059765;28;20052;-77
2023/10/19 09:26:23;;;;;;;7.65;5.82;;;9.50;99.90;;;;;;5070183;28;20047;-77
2023/10/19 09:28:50;;;;;;;7.72;5.65;;;9.50;99.90;;;;;;5073315;28;20079;-76
2023/10/19 09:31:18;;;;;;;6.53;4.80;;;9.60;99.90;;;;;;5058085;28;20075;-77
2023/10/19 09:33:45;;;;;;;8.23;5.55;;;9.60;99.90;;;;;;5075425;28;20040;-77
2023/10/19 09:36:15;;;;;;;7.97;5.30;;;9.60;99.90;;;;;;5076940;28;20066;-77
2023/10/19 09:38:51;;;;;;;7.35;5.60;;;9.60;99.90;;;;;;5073906;28;20052;-78
2023/10/19 09:41:28;;;;;;;9.73;5.30;;;9.60;99.90;;;;;;5060478;28;20091;-76
2023/10/19 09:44:02;;;;;;;6.97;4.88;;;9.60;99.90;;;;;;5071674;28;20046;-77
2023/10/19 09:46:31;;;;;;;7.78;5.00;;;9.60;99.90;;;;;;5078838;28;20412;-77
2023/10/19 09:48:58;;;;;;;6.47;4.25;;;9.60;99.90;;;;;;5074694;28;20068;-76
2023/10/19 09:51:24;;;;;;;6.75;4.78;;;9.70;99.90;;;;;;5057188;28;20534;-77
2023/10/19 09:54:35;;;;;;;9.68;5.80;;;9.60;99.90;;;;;;5074295;28;20041;-77
2023/10/19 09:57:12;;;;;;;8.23;5.78;;;9.70;99.90;;;;;;4994157;28;20045;-76
2023/10/19 09:59:40;;;;;;;8.38;5.57;;;9.70;99.90;;;;;;5067151;28;20140;-77
2023/10/19 10:02:22;;;;;;;7.90;5.07;;;9.80;99.90;;;;;;5074516;28;20451;-76
2023/10/19 10:04:48;;;;;;;10.38;5.65;;;9.80;99.90;;;;;;5068709;28;20044;-76
2023/10/19 10:07:18;;;;;;;7.07;5.50;;;9.80;99.90;;;;;;5071466;28;20056;-77
2023/10/19 10:09:44;;;;;;;8.73;6.40;;;9.80;99.90;;;;;;5072835;28;20041;-77
2023/10/19 10:12:27;;;;;;;9.05;5.70;;;9.90;99.90;;;;;;5074067;28;20094;-77
2023/10/19 10:15:07;;;;;;;8.00;5.90;;;9.90;99.90;;;;;;5072244;28;20098;-77
2023/10/19 10:17:38;;;;;;;6.85;4.80;;;9.90;99.90;;;;;;5062850;28;20408;-77
2023/10/19 10:20:17;;;;;;;8.93;5.43;;;9.90;99.90;;;;;;5060590;28;20167;-77
2023/10/19 10:22:43;;;;;;;7.93;5.43;;;9.90;99.90;;;;;;5047977;28;20063;-76
2023/10/19 10:25:29;;;;;;;8.40;5.70;;;9.90;99.90;;;;;;5060879;28;20045;-76
2023/10/19 10:27:55;;;;;;;8.43;4.68;;;10.00;99.90;;;;;;5056573;28;20052;-76
2023/10/19 10:30:21;;;;;;;7.22;4.97;;;10.00;99.90;;;;;;5057010;28;20715;-77
2023/10/19 10:32:53;;;;;;;9.02;5.90;;;10.00;99.90;;;;;;5056620;28;20041;-76
2023/10/19 10:35:40;;;;;;;9.45;6.22;;;10.00;99.90;;;;;;5056583;28;20566;-76
2023/10/19 10:38:12;;;;;;;8.35;5.90;;;10.00;99.90;;;;;;5059838;28;20056;-77
2023/10/19 10:40:49;;;;;;;9.23;6.07;;;10.00;99.90;;;;;;5061061;28;20123;-77
2023/10/19 10:43:19;;;;;;;7.90;5.47;;;10.10;99.90;;;;;;5056680;28;20071;-77
2023/10/19 10:45:44;;;;;;;11.65;6.30;;;10.10;99.90;;;;;;5060676;28;20048;-76
2023/10/19 10:48:14;;;;;;;9.55;6.05;;;10.10;99.90;;;;;;5072815;28;20044;-76
2023/10/19 10:50:41;;;;;;;9.30;6.43;;;10.10;99.90;;;;;;5073662;28;20489;-76
2023/10/19 10:53:13;;;;;;;8.32;5.78;;;10.10;99.90;;;;;;5056216;28;20408;-77
2023/10/19 10:55:40;;;;;;;11.90;6.10;;;10.20;99.90;;;;;;5068282;28;20059;-76
2023/10/19 10:58:09;;;;;;;8.88;6.07;;;10.20;99.90;;;;;;5060095;28;20055;-77
2023/10/19 11:00:42;;;;;;;7.78;5.90;;;10.20;99.90;;;;;;5043628;28;20544;-77
2023/10/19 11:03:09;;;;;;;8.25;6.35;;;10.20;99.90;;;;;;5076297;28;20063;-77
2023/10/19 11:05:36;;;;;;;8.85;6.80;;;10.20;99.90;;;;;;5094520;28;20047;-76
2023/10/19 11:08:06;;;;;;;7.82;6.25;;;10.30;99.90;;;;;;5094087;28;20502;-76
2023/10/19 11:10:33;;;;;;;9.73;6.43;;;10.30;99.90;;;;;;5090570;28;20190;-77
2023/10/19 11:13:03;;;;;;;7.28;5.22;;;10.30;99.90;;;;;;5073883;28;20547;-77
2023/10/19 11:15:29;;;;;;;9.23;6.13;;;10.30;99.90;;;;;;5072795;28;20063;-77
2023/10/19 11:17:55;;;;;;;8.88;6.00;;;10.40;99.90;;;;;;5067272;28;20049;-78
2023/10/19 11:20:23;;;;;;;8.63;6.25;;;10.40;99.90;;;;;;5054768;28;20490;-75
2023/10/19 11:22:50;;;;;;;8.55;6.47;;;10.40;99.90;;;;;;5056337;28;20045;-76
2023/10/19 11:25:23;;;;;;;7.82;6.10;;;10.40;99.90;;;;;;5055796;28;20048;-76
2023/10/19 11:27:49;;;;;;;8.63;6.20;;;10.40;99.90;;;;;;5072679;28;20049;-76
2023/10/19 11:30:31;;;;;;;8.10;5.97;;;10.40;99.90;;;;;;5055871;28;20052;-77
2023/10/19 11:33:01;;;;;;;9.85;5.93;;;10.40;99.90;;;;;;5057137;28;20083;-77
2023/10/19 11:35:30;;;;;;;8.45;5.53;;;10.40;99.90;;;;;;5078117;28;20040;-76
2023/10/19 11:38:00;;;;;;;7.93;5.82;;;10.40;99.90;;;;;;5069413;28;20049;-77
2023/10/19 11:40:27;;;;;;;10.13;6.03;;;10.40;99.90;;;;;;5053178;28;20045;-77
2023/10/19 11:42:56;;;;;;;8.70;6.25;;;10.30;99.90;;;;;;5052532;28;20049;-78
2023/10/19 11:45:23;;;;;;;9.65;6.85;;;10.40;99.90;;;;;;5059454;28;20048;-76
2023/10/19 11:47:50;;;;;;;8.55;5.97;;;10.40;99.90;;;;;;5073272;28;20040;-76
2023/10/19 11:50:17;;;;;;;8.95;6.10;;;10.40;99.90;;;;;;5055157;28;20051;-76
2023/10/19 11:52:43;;;;;;;8.82;5.85;;;10.30;99.90;;;;;;5052131;28;20170;-77
2023/10/19 11:55:09;;;;;;;8.07;5.88;;;10.40;99.90;;;;;;5053145;28;20059;-77
2023/10/19 11:57:35;;;;;;;7.72;5.57;;;10.40;99.90;;;;;;5052271;28;20471;-77
2023/10/19 12:00:08;;;;;;;9.70;6.13;;;10.40;99.90;;;;;;5051912;28;20427;-77
2023/10/19 12:02:37;;;;;;;10.43;6.32;;;10.40;99.90;;;;;;5047485;28;20070;-77
2023/10/19 12:05:04;;;;;;;10.30;6.70;;;10.40;99.90;;;;;;5033114;28;20104;-76
2023/10/19 12:07:32;;;;;;;9.52;6.07;;;10.40;99.90;;;;;;5033171;28;20088;-77
2023/10/19 12:09:58;;;;;;;8.52;6.45;;;10.40;99.90;;;;;;5033128;28;20444;-77
2023/10/19 12:12:24;;;;;;;6.82;5.43;;;10.50;99.90;;;;;;5045952;28;20045;-78
2023/10/19 12:14:50;;;;;;;9.77;6.25;;;10.50;99.90;;;;;;5052577;28;20051;-80
2023/10/19 12:17:17;;;;;;;9.00;5.90;;;10.60;99.90;;;;;;5052090;28;20342;-76
2023/10/19 12:19:43;;;;;;;7.80;5.65;;;10.60;99.90;;;;;;5052425;28;20049;-76
2023/10/19 12:22:08;;;;;;;9.35;6.13;;;10.60;99.90;;;;;;5052205;28;20049;-76
2023/10/19 12:24:34;;;;;;;11.05;5.90;;;10.60;99.90;;;;;;5052665;28;20095;-76
2023/10/19 12:27:00;;;;;;;9.63;6.40;;;10.60;99.90;;;;;;5052733;28;20037;-75
2023/10/19 12:29:26;;;;;;;11.38;7.10;;;10.50;99.90;;;;;;5052689;28;20045;-75
2023/10/19 12:31:51;;;;;;;14.00;7.00;;;10.50;99.90;;;;;;5051795;28;20076;-75
2023/10/19 12:34:17;;;;;;;11.70;7.25;;;10.50;99.90;;;;;;5050891;28;20052;-76
2023/10/19 12:36:46;;;;;;;14.95;7.05;;;10.50;99.90;;;;;;5066691;28;20424;-77
2023/10/19 12:39:35;;;;;;;11.65;7.60;;;10.40;99.90;;;;;;5085956;28;20103;-75
2023/10/19 12:41:58;;;;;;;9.65;5.70;;;10.50;99.90;;;;;;5034467;28;20053;-76
2023/10/19 12:44:24;;;;;;;13.43;7.13;;;10.40;99.90;;;;;;5052297;28;20044;-76
2023/10/19 12:46:50;;;;;;;10.60;6.63;;;10.40;99.90;;;;;;5070317;28;20068;-75
2023/10/19 12:49:18;;;;;;;15.30;6.60;;;10.50;99.90;;;;;;5054232;28;20472;-76
2023/10/19 12:51:44;;;;;;;8.63;6.32;;;10.50;99.90;;;;;;5069868;28;20067;-75
2023/10/19 12:54:13;;;;;;;11.50;7.13;;;10.50;99.90;;;;;;5050534;28;20055;-75
2023/10/19 12:56:39;;;;;;;11.70;5.90;;;10.50;99.90;;;;;;5060802;28;20503;-75
2023/10/19 12:59:06;;;;;;;7.50;5.68;;;10.50;99.90;;;;;;5055380;28;20121;-76
2023/10/19 13:01:35;;;;;;;8.40;5.40;;;10.50;99.90;;;;;;5070032;28;20044;-75
2023/10/19 13:04:13;;;;;;;9.27;5.63;;;10.60;99.90;;;;;;5070800;28;20120;-75
2023/10/19 13:06:40;;;;;;;9.27;6.20;;;10.50;99.90;;;;;;5072382;28;20133;-75
2023/10/19 13:09:08;;;;;;;7.95;5.63;;;10.50;99.90;;;;;;5071893;28;20560;-75
2023/10/19 13:11:34;;;;;;;9.10;6.20;;;10.50;99.90;;;;;;5069902;28;20048;-76
2023/10/19 13:14:00;;;;;;;8.02;5.75;;;10.50;99.90;;;;;;5064218;28;20047;-76
2023/10/19 13:16:27;;;;;;;10.77;6.47;;;10.50;99.90;;;;;;5071065;28;20055;-75
2023/10/19 13:18:53;;;;;;;8.82;5.60;;;10.50;99.90;;;;;;5053889;28;20064;-76
2023/10/19 13:21:25;;;;;;;9.32;6.85;;;10.40;99.90;;;;;;5072318;28;20045;-76
2023/10/19 13:23:53;;;;;;;9.73;7.18;;;10.40;99.90;;;;;;5072072;28;20062;-77
2023/10/19 13:26:19;;;;;;;11.40;7.47;;;10.40;99.90;;;;;;5072808;28;20400;-77
2023/10/19 13:28:46;;;;;;;10.95;8.10;;;10.40;99.90;;;;;;5072109;28;20048;-77